Time;durP1;ratioP1;P1;durP2;ratioP2;P2;SDS_P1;SDS_P2;PMS_P1;PMS_P2;Temp;Humidity;BMP_temperature;BMP_pressure;BME280_temperature;BME280_humidity;BME280_pressure;Samples;Min_cycle;Max_cycle;Signal;HPM_P1;HPM_P2
2023/08/26 00:01:41;;;;;;;51.80;33.28;;;16.70;99.90;;;;;;6213487;23;20008;-81
2023/08/26 00:04:07;;;;;;;49.50;30.48;;;16.60;99.90;;;;;;6239314;23;20008;-81
2023/08/26 00:06:34;;;;;;;51.80;33.92;;;16.60;99.90;;;;;;6241250;22;20470;-81
2023/08/26 00:09:00;;;;;;;49.40;28.23;;;16.50;99.90;;;;;;6214193;23;20012;-81
2023/08/26 00:11:26;;;;;;;52.60;33.00;;;16.50;99.90;;;;;;6239673;23;20019;-81
2023/08/26 00:13:52;;;;;;;52.83;32.55;;;16.50;99.90;;;;;;6238961;23;20008;-80
2023/08/26 00:16:17;;;;;;;48.35;32.80;;;16.40;99.90;;;;;;6213429;23;20012;-81
2023/08/26 00:18:43;;;;;;;44.22;30.35;;;16.40;99.90;;;;;;6241030;22;20040;-81
2023/08/26 00:21:10;;;;;;;52.47;30.67;;;16.30;99.90;;;;;;6213960;23;20012;-81
2023/08/26 00:23:36;;;;;;;57.17;32.00;;;16.30;99.90;;;;;;6239134;23;20047;-81
2023/08/26 00:26:02;;;;;;;42.28;28.00;;;16.30;99.90;;;;;;6238826;23;20335;-81
2023/08/26 00:28:28;;;;;;;50.17;31.17;;;16.30;99.90;;;;;;6239190;23;20316;-81
2023/08/26 00:30:58;;;;;;;43.92;29.92;;;16.20;99.90;;;;;;6238451;23;20015;-81
2023/08/26 00:33:24;;;;;;;46.33;32.38;;;16.20;99.90;;;;;;6213807;23;20454;-81
2023/08/26 00:35:50;;;;;;;45.53;28.30;;;16.30;99.90;;;;;;6239386;23;20066;-81
2023/08/26 00:38:15;;;;;;;45.10;30.48;;;16.30;99.90;;;;;;6239306;23;20008;-81
2023/08/26 00:40:41;;;;;;;49.08;30.92;;;16.40;99.90;;;;;;6240656;23;20016;-81
2023/08/26 00:43:09;;;;;;;49.33;32.20;;;16.30;99.90;;;;;;6240475;23;20023;-81
2023/08/26 00:45:39;;;;;;;47.67;30.52;;;16.30;99.90;;;;;;6213104;23;20351;-81
2023/08/26 00:48:05;;;;;;;40.70;30.60;;;16.30;99.90;;;;;;6239309;23;20048;-81
2023/08/26 00:50:31;;;;;;;43.58;29.05;;;16.20;99.90;;;;;;6238687;23;20019;-81
2023/08/26 00:52:56;;;;;;;48.85;30.70;;;16.20;99.90;;;;;;6213840;23;20656;-81
2023/08/26 00:55:22;;;;;;;38.80;28.50;;;16.20;99.90;;;;;;6238813;23;20071;-81
2023/08/26 00:57:48;;;;;;;36.38;27.13;;;16.10;99.90;;;;;;6213779;23;20016;-81
2023/08/26 01:00:14;;;;;;;36.15;24.63;;;16.10;99.90;;;;;;6238331;23;20027;-81
2023/08/26 01:02:40;;;;;;;34.75;25.48;;;16.10;99.90;;;;;;6239077;23;20043;-81
2023/08/26 01:05:07;;;;;;;32.67;24.73;;;16.00;99.90;;;;;;6239349;23;20016;-81
2023/08/26 01:07:33;;;;;;;41.63;27.35;;;16.00;99.90;;;;;;6239103;23;20053;-81
2023/08/26 01:09:58;;;;;;;34.90;25.70;;;15.90;99.90;;;;;;6213575;23;20448;-81
2023/08/26 01:12:39;;;;;;;29.27;25.65;;;16.00;99.90;;;;;;6213868;23;20015;-81
2023/08/26 01:15:11;;;;;;;34.65;24.80;;;16.00;99.90;;;;;;6240069;23;20078;-81
2023/08/26 01:17:38;;;;;;;32.92;24.50;;;16.00;99.90;;;;;;6213528;23;20043;-81
2023/08/26 01:20:05;;;;;;;30.75;24.10;;;15.90;99.90;;;;;;6240599;22;20012;-81
2023/08/26 01:22:34;;;;;;;30.65;25.10;;;15.90;99.90;;;;;;6213098;23;20055;-81
2023/08/26 01:25:00;;;;;;;29.08;23.55;;;15.80;99.90;;;;;;6238875;23;20012;-81
2023/08/26 01:27:26;;;;;;;29.58;24.17;;;15.70;99.90;;;;;;6213617;23;20019;-81
2023/08/26 01:29:51;;;;;;;32.40;23.80;;;15.70;99.90;;;;;;6213075;23;20552;-80
2023/08/26 01:32:32;;;;;;;27.40;23.63;;;15.70;99.90;;;;;;6240759;22;20035;-81
2023/08/26 01:34:59;;;;;;;32.28;26.17;;;15.70;99.90;;;;;;6238674;23;20019;-81
2023/08/26 01:37:27;;;;;;;26.33;21.33;;;15.80;99.90;;;;;;6239197;23;20016;-81
2023/08/26 01:39:54;;;;;;;26.20;23.40;;;15.70;99.90;;;;;;6240545;22;20011;-81
2023/08/26 01:42:24;;;;;;;26.90;24.00;;;15.70;99.90;;;;;;6238284;23;20013;-81
2023/08/26 01:44:50;;;;;;;30.45;21.35;;;15.70;99.90;;;;;;6239027;23;20031;-81
2023/08/26 01:47:16;;;;;;;28.02;19.70;;;15.70;99.90;;;;;;6238942;23;20143;-81
2023/08/26 01:49:43;;;;;;;26.20;22.10;;;15.70;99.90;;;;;;6238609;23;20436;-81
2023/08/26 01:52:10;;;;;;;25.45;22.60;;;15.70;99.90;;;;;;6238689;23;20166;-81
2023/08/26 01:54:35;;;;;;;26.20;20.95;;;15.60;99.90;;;;;;6240596;22;20017;-81
2023/08/26 01:57:01;;;;;;;24.02;20.00;;;15.80;99.90;;;;;;6212916;23;20012;-81
2023/08/26 01:59:27;;;;;;;21.45;19.13;;;15.70;99.90;;;;;;6238592;23;20589;-81
2023/08/26 02:01:52;;;;;;;27.02;23.30;;;15.60;99.90;;;;;;6213964;23;20422;-81
2023/08/26 02:04:19;;;;;;;24.52;22.13;;;15.60;99.90;;;;;;6242330;23;20039;-81
2023/08/26 02:06:45;;;;;;;26.30;20.45;;;15.50;99.90;;;;;;6215019;23;20027;-81
2023/08/26 02:09:10;;;;;;;34.03;22.75;;;15.50;99.90;;;;;;6215284;23;20004;-81
2023/08/26 02:11:36;;;;;;;23.75;20.08;;;15.50;99.90;;;;;;6214687;23;20009;-81
2023/08/26 02:14:01;;;;;;;31.52;22.80;;;15.40;99.90;;;;;;6215160;23;20012;-81
2023/08/26 02:16:27;;;;;;;24.50;21.25;;;15.30;99.90;;;;;;6240417;23;20080;-81
2023/08/26 02:18:53;;;;;;;27.90;19.73;;;15.20;99.90;;;;;;6242086;23;20129;-81
2023/08/26 02:21:18;;;;;;;22.58;20.27;;;15.10;99.90;;;;;;6240280;23;20024;-81
2023/08/26 02:23:44;;;;;;;24.90;21.05;;;15.00;99.90;;;;;;6214916;23;20020;-81
2023/08/26 02:26:10;;;;;;;25.15;22.40;;;14.90;99.90;;;;;;6214340;23;20016;-81
2023/08/26 02:28:35;;;;;;;27.25;21.92;;;14.90;99.90;;;;;;6215188;23;20070;-81
2023/08/26 02:31:04;;;;;;;29.05;23.67;;;14.80;99.90;;;;;;6240461;23;20008;-81
2023/08/26 02:33:30;;;;;;;27.00;22.67;;;14.70;99.90;;;;;;6240339;23;20016;-81
2023/08/26 02:35:56;;;;;;;28.92;22.88;;;14.60;99.90;;;;;;6240223;23;20008;-80
2023/08/26 02:38:21;;;;;;;29.63;23.38;;;14.60;99.90;;;;;;6214624;23;20012;-80
2023/08/26 02:40:54;;;;;;;26.25;23.55;;;14.50;99.90;;;;;;6239727;23;20009;-81
2023/08/26 02:43:23;;;;;;;27.50;24.77;;;14.40;99.90;;;;;;6240016;23;20510;-81
2023/08/26 02:45:53;;;;;;;27.08;24.27;;;14.40;99.90;;;;;;6241996;23;20534;-81
2023/08/26 02:48:19;;;;;;;30.67;24.45;;;14.30;99.90;;;;;;6214859;23;20461;-81
2023/08/26 02:50:45;;;;;;;26.48;22.27;;;14.30;99.90;;;;;;6214650;23;20107;-81
2023/08/26 02:53:10;;;;;;;27.73;24.30;;;14.20;99.90;;;;;;6241772;23;20250;-80
2023/08/26 02:55:37;;;;;;;29.85;25.52;;;14.20;99.90;;;;;;6213825;23;20095;-81
2023/08/26 02:58:03;;;;;;;27.75;24.50;;;14.10;99.90;;;;;;6214644;23;20321;-81
2023/08/26 03:00:29;;;;;;;33.30;26.98;;;14.10;99.90;;;;;;6241852;23;20061;-81
2023/08/26 03:02:54;;;;;;;27.90;24.95;;;14.00;99.90;;;;;;6214319;23;20016;-81
2023/08/26 03:05:20;;;;;;;31.70;27.25;;;14.00;99.90;;;;;;6239997;23;20019;-81
2023/08/26 03:07:46;;;;;;;29.92;24.48;;;13.90;99.90;;;;;;6241571;22;20012;-81
2023/08/26 03:10:11;;;;;;;25.80;22.83;;;13.90;99.90;;;;;;6239156;23;20035;-81
2023/08/26 03:12:37;;;;;;;35.38;26.77;;;13.90;99.90;;;;;;6214644;23;20385;-81
2023/08/26 03:15:03;;;;;;;27.42;24.58;;;13.90;99.90;;;;;;6214460;23;20008;-80
2023/08/26 03:17:28;;;;;;;31.45;26.60;;;13.80;99.90;;;;;;6214456;23;20347;-80
2023/08/26 03:19:54;;;;;;;29.20;26.10;;;13.70;99.90;;;;;;6240007;23;20016;-80
2023/08/26 03:22:20;;;;;;;28.60;25.73;;;13.80;99.90;;;;;;6239624;23;20086;-81
2023/08/26 03:24:45;;;;;;;42.40;30.08;;;13.70;99.90;;;;;;6213846;23;20023;-81
2023/08/26 03:27:11;;;;;;;31.80;26.60;;;13.70;99.90;;;;;;6241417;23;20018;-80
2023/08/26 03:29:36;;;;;;;37.20;28.15;;;13.60;99.90;;;;;;6240008;23;20016;-80
2023/08/26 03:32:02;;;;;;;30.95;27.70;;;13.70;99.90;;;;;;6214312;23;20062;-80
2023/08/26 03:34:29;;;;;;;37.83;30.63;;;13.60;99.90;;;;;;6239438;23;20008;-80
2023/08/26 03:36:54;;;;;;;31.02;27.95;;;13.50;99.90;;;;;;6240024;23;20093;-80
2023/08/26 03:39:20;;;;;;;37.28;28.75;;;13.50;99.90;;;;;;6238596;23;20433;-80
2023/08/26 03:41:46;;;;;;;39.78;29.70;;;13.50;99.90;;;;;;6239417;23;20017;-80
2023/08/26 03:44:11;;;;;;;29.42;26.27;;;13.50;99.90;;;;;;6241432;23;20009;-80
2023/08/26 03:46:37;;;;;;;37.70;30.30;;;13.40;99.90;;;;;;6239279;23;20012;-80
2023/08/26 03:49:03;;;;;;;29.85;24.75;;;13.50;99.90;;;;;;6214272;23;20050;-80
2023/08/26 03:51:28;;;;;;;33.75;29.50;;;13.50;99.90;;;;;;6240874;23;20046;-80
2023/08/26 03:53:54;;;;;;;32.08;28.02;;;13.50;99.90;;;;;;6213396;23;20020;-80
2023/08/26 03:56:19;;;;;;;32.75;29.35;;;13.50;99.90;;;;;;6240956;22;20158;-80
2023/08/26 03:58:45;;;;;;;37.50;29.98;;;13.70;99.90;;;;;;6239490;23;20093;-80
2023/08/26 04:01:11;;;;;;;40.50;30.48;;;13.40;99.90;;;;;;6239537;23;20027;-80
2023/08/26 04:03:36;;;;;;;37.15;28.98;;;13.40;99.90;;;;;;6239314;23;20106;-80
2023/08/26 04:06:04;;;;;;;37.67;28.13;;;13.40;99.90;;;;;;6239081;23;20012;-80
2023/08/26 04:08:31;;;;;;;35.20;28.60;;;13.30;99.90;;;;;;6238613;23;20007;-80
2023/08/26 04:10:59;;;;;;;40.28;31.88;;;13.30;99.90;;;;;;6239173;23;20044;-80
2023/08/26 04:13:26;;;;;;;32.97;27.88;;;13.30;99.90;;;;;;6239317;23;20031;-80
2023/08/26 04:16:00;;;;;;;29.83;26.50;;;13.30;99.90;;;;;;6214090;23;20463;-80
2023/08/26 04:18:25;;;;;;;33.78;26.17;;;13.30;99.90;;;;;;6239170;23;20078;-80
2023/08/26 04:20:52;;;;;;;45.60;30.75;;;13.20;99.90;;;;;;6214043;23;20072;-80
2023/08/26 04:23:18;;;;;;;28.83;25.48;;;13.20;99.90;;;;;;6240470;22;20012;-80
2023/08/26 04:25:43;;;;;;;35.97;32.33;;;13.10;99.90;;;;;;6238669;23;20043;-80
2023/08/26 04:28:11;;;;;;;37.80;29.52;;;13.10;99.90;;;;;;6239622;23;20039;-80
2023/08/26 04:30:37;;;;;;;33.88;28.80;;;13.10;99.90;;;;;;6213773;23;20335;-80
2023/08/26 04:33:04;;;;;;;31.35;27.42;;;13.10;99.90;;;;;;6239247;23;20017;-80
2023/08/26 04:35:30;;;;;;;29.45;26.33;;;13.10;99.90;;;;;;6213896;23;20008;-80
2023/08/26 04:37:56;;;;;;;34.90;31.25;;;13.10;99.90;;;;;;6213158;23;20012;-80
2023/08/26 04:40:22;;;;;;;35.13;31.23;;;13.10;99.90;;;;;;6213960;23;20012;-80
2023/08/26 04:42:47;;;;;;;33.70;30.52;;;13.10;99.90;;;;;;6240598;22;20023;-80
2023/08/26 04:45:14;;;;;;;34.72;31.20;;;13.10;99.90;;;;;;6239173;23;20004;-80
2023/08/26 04:47:41;;;;;;;32.08;27.80;;;13.10;99.90;;;;;;6239473;23;20047;-80
2023/08/26 04:50:08;;;;;;;36.72;30.98;;;13.10;99.90;;;;;;6238921;23;20015;-80
2023/08/26 04:52:33;;;;;;;31.63;27.58;;;13.20;99.90;;;;;;6238870;23;20066;-80
2023/08/26 04:54:59;;;;;;;42.30;32.53;;;13.30;99.90;;;;;;6213638;23;20480;-80
2023/08/26 04:57:24;;;;;;;35.03;30.63;;;13.40;99.90;;;;;;6240812;23;20012;-80
2023/08/26 04:59:51;;;;;;;43.83;30.30;;;13.40;99.90;;;;;;6239056;23;20012;-80
2023/08/26 05:02:17;;;;;;;42.30;29.45;;;13.50;99.90;;;;;;6239134;23;20012;-80
2023/08/26 05:04:44;;;;;;;39.90;27.60;;;13.60;99.90;;;;;;6213673;23;20320;-80
2023/08/26 05:07:10;;;;;;;32.72;27.25;;;13.70;99.90;;;;;;6212652;23;20016;-80
2023/08/26 05:09:36;;;;;;;37.03;28.10;;;13.90;99.90;;;;;;6240187;22;20008;-80
2023/08/26 05:12:03;;;;;;;35.60;28.38;;;14.00;99.90;;;;;;6238558;23;20334;-80
2023/08/26 05:14:28;;;;;;;31.60;27.00;;;13.90;99.90;;;;;;6213726;23;20008;-81
2023/08/26 05:16:54;;;;;;;29.88;24.95;;;14.00;99.90;;;;;;6213453;23;20394;-80
2023/08/26 05:19:20;;;;;;;28.15;25.30;;;14.00;99.90;;;;;;6240420;23;20016;-80
2023/08/26 05:21:45;;;;;;;33.72;26.40;;;14.00;99.90;;;;;;6239998;22;20023;-80
2023/08/26 05:24:11;;;;;;;27.90;22.02;;;14.00;99.90;;;;;;6238770;23;20016;-81
2023/08/26 05:26:37;;;;;;;27.20;22.90;;;14.00;99.90;;;;;;6238522;23;20024;-81
2023/08/26 05:29:04;;;;;;;25.55;20.92;;;14.10;99.90;;;;;;6239207;23;20009;-81
2023/08/26 05:31:31;;;;;;;27.52;18.98;;;14.10;99.90;;;;;;6240783;22;20004;-81
2023/08/26 05:33:56;;;;;;;19.70;17.60;;;14.20;99.90;;;;;;6238667;23;20108;-81
2023/08/26 05:36:22;;;;;;;25.17;18.55;;;13.90;99.90;;;;;;6213540;23;20410;-79
2023/08/26 05:38:48;;;;;;;24.02;18.48;;;14.30;99.90;;;;;;6215356;23;20008;-80
2023/08/26 05:41:13;;;;;;;21.05;17.25;;;14.30;99.90;;;;;;6242211;23;20093;-80
2023/08/26 05:43:39;;;;;;;20.42;17.58;;;14.30;99.90;;;;;;6240890;23;20410;-80
2023/08/26 05:46:05;;;;;;;22.40;18.98;;;14.40;99.90;;;;;;6240519;23;20040;-80
2023/08/26 05:48:30;;;;;;;23.10;16.73;;;14.40;99.90;;;;;;6215323;23;20043;-80
2023/08/26 05:50:59;;;;;;;23.23;17.95;;;14.50;99.90;;;;;;6240377;23;20099;-80
2023/08/26 05:53:28;;;;;;;20.95;17.98;;;14.60;99.90;;;;;;6240459;23;20016;-81
2023/08/26 05:55:54;;;;;;;19.20;17.30;;;14.60;99.90;;;;;;6242553;22;20030;-81
2023/08/26 05:58:20;;;;;;;23.55;18.27;;;14.70;99.90;;;;;;6240467;23;20601;-81
2023/08/26 06:00:47;;;;;;;25.75;18.00;;;14.70;99.90;;;;;;6240787;23;20012;-81
2023/08/26 06:03:13;;;;;;;24.25;19.38;;;14.80;99.90;;;;;;6240486;23;20008;-81
2023/08/26 06:05:38;;;;;;;22.60;16.33;;;14.90;99.90;;;;;;6240323;23;20015;-81
2023/08/26 06:08:05;;;;;;;17.20;15.30;;;14.80;99.90;;;;;;6214994;23;20126;-80
2023/08/26 06:10:31;;;;;;;22.42;16.65;;;14.80;99.90;;;;;;6240740;23;20088;-81
2023/08/26 06:12:57;;;;;;;20.95;18.83;;;14.90;99.90;;;;;;6240863;23;20047;-81
2023/08/26 06:15:23;;;;;;;23.10;15.30;;;14.90;99.90;;;;;;6215097;23;20012;-80
2023/08/26 06:17:49;;;;;;;21.17;18.98;;;14.90;99.90;;;;;;6214943;23;20077;-80
2023/08/26 06:20:15;;;;;;;18.35;16.13;;;15.00;99.90;;;;;;6240589;23;20020;-81
2023/08/26 06:22:45;;;;;;;23.40;19.20;;;15.10;99.90;;;;;;6242155;23;20008;-80
2023/08/26 06:25:12;;;;;;;19.83;15.38;;;15.10;99.90;;;;;;6244067;23;20567;-81
2023/08/26 06:27:38;;;;;;;23.25;19.45;;;15.20;99.90;;;;;;6245460;23;20012;-81
2023/08/26 06:30:04;;;;;;;18.60;13.77;;;15.20;99.90;;;;;;6214802;23;20454;-81
2023/08/26 06:32:30;;;;;;;20.67;18.52;;;15.30;99.90;;;;;;6214392;23;20012;-81
2023/08/26 06:34:56;;;;;;;18.75;16.95;;;15.30;99.90;;;;;;6240354;23;20462;-81
2023/08/26 06:37:22;;;;;;;25.27;18.40;;;15.40;99.90;;;;;;6241780;22;20012;-81
2023/08/26 06:39:48;;;;;;;21.70;17.77;;;15.40;99.90;;;;;;6214649;23;20012;-80
2023/08/26 06:42:14;;;;;;;18.27;16.38;;;15.40;99.90;;;;;;6239437;23;20099;-81
2023/08/26 06:44:40;;;;;;;18.98;16.70;;;15.30;99.90;;;;;;6214498;23;20023;-80
2023/08/26 06:47:08;;;;;;;18.25;14.32;;;15.30;99.90;;;;;;6238869;23;20012;-80
2023/08/26 06:49:33;;;;;;;17.38;14.30;;;15.40;99.90;;;;;;6239613;23;20447;-81
2023/08/26 06:51:59;;;;;;;24.60;18.40;;;15.40;99.90;;;;;;6239803;23;20061;-81
2023/08/26 06:54:24;;;;;;;23.30;20.98;;;15.40;99.90;;;;;;6214608;23;20089;-80
2023/08/26 06:56:50;;;;;;;21.30;16.40;;;15.40;99.90;;;;;;6239806;23;20058;-80
2023/08/26 06:59:16;;;;;;;14.93;13.55;;;15.40;99.90;;;;;;6240105;23;20020;-81
2023/08/26 07:01:42;;;;;;;19.75;16.17;;;15.50;99.90;;;;;;6213870;23;20008;-80
2023/08/26 07:04:08;;;;;;;18.75;16.10;;;15.50;99.90;;;;;;6214583;23;20015;-81
2023/08/26 07:06:35;;;;;;;18.27;16.05;;;15.50;99.90;;;;;;6239965;23;20009;-80
2023/08/26 07:09:01;;;;;;;21.55;18.55;;;15.60;99.90;;;;;;6240203;23;20004;-81
2023/08/26 07:11:27;;;;;;;18.92;16.05;;;15.70;99.90;;;;;;6214532;23;20058;-81
2023/08/26 07:13:53;;;;;;;24.27;16.50;;;15.80;99.90;;;;;;6214529;23;20007;-81
2023/08/26 07:16:19;;;;;;;20.27;17.77;;;15.90;99.90;;;;;;6239043;23;20336;-82
2023/08/26 07:18:45;;;;;;;22.13;16.60;;;16.00;99.90;;;;;;6239627;23;20022;-81
2023/08/26 07:21:10;;;;;;;22.77;17.45;;;16.20;99.90;;;;;;6214287;23;20091;-81
2023/08/26 07:23:37;;;;;;;21.35;17.65;;;16.40;99.90;;;;;;6239850;23;20150;-80
2023/08/26 07:26:02;;;;;;;20.95;18.55;;;16.50;99.90;;;;;;6239368;23;20153;-80
2023/08/26 07:28:29;;;;;;;25.45;18.73;;;16.60;99.90;;;;;;6214250;23;20020;-80
2023/08/26 07:31:02;;;;;;;28.90;19.25;;;16.70;99.90;;;;;;6239051;23;20512;-80
2023/08/26 07:33:28;;;;;;;28.33;21.75;;;16.80;99.90;;;;;;6239637;23;20004;-79
2023/08/26 07:36:04;;;;;;;26.77;21.25;;;16.80;99.90;;;;;;6214088;23;20439;-80
2023/08/26 07:38:30;;;;;;;32.53;22.65;;;16.80;99.90;;;;;;6239754;23;20008;-80
2023/08/26 07:40:56;;;;;;;33.92;23.58;;;16.90;99.90;;;;;;6214067;23;20055;-80
2023/08/26 07:43:22;;;;;;;36.92;27.08;;;17.00;99.90;;;;;;6213923;23;20051;-80
2023/08/26 07:45:47;;;;;;;35.95;25.88;;;17.00;99.90;;;;;;6213246;23;20439;-80
2023/08/26 07:48:13;;;;;;;30.17;25.55;;;17.20;99.90;;;;;;6213228;23;20022;-80
2023/08/26 07:50:39;;;;;;;35.42;25.10;;;17.40;99.90;;;;;;6239230;23;20443;-80
2023/08/26 07:53:05;;;;;;;28.95;25.75;;;17.50;99.90;;;;;;6239253;23;20012;-81
2023/08/26 07:55:31;;;;;;;34.67;27.63;;;17.60;99.90;;;;;;6239298;23;20014;-80
2023/08/26 07:57:57;;;;;;;34.03;29.02;;;17.70;99.90;;;;;;6239223;23;20020;-80
2023/08/26 08:00:23;;;;;;;31.48;26.85;;;17.70;99.90;;;;;;6238914;23;20051;-80
2023/08/26 08:02:49;;;;;;;32.55;29.20;;;17.70;99.90;;;;;;6213524;23;20451;-80
2023/08/26 08:05:14;;;;;;;36.88;33.00;;;17.80;99.90;;;;;;6213591;23;20061;-80
2023/08/26 08:07:40;;;;;;;36.80;32.80;;;17.80;99.90;;;;;;6213898;23;20096;-80
2023/08/26 08:10:08;;;;;;;35.25;31.80;;;17.80;99.90;;;;;;6213695;23;20588;-80
2023/08/26 08:12:34;;;;;;;42.17;31.83;;;18.00;99.90;;;;;;6238880;23;20008;-80
2023/08/26 08:14:59;;;;;;;32.90;29.65;;;18.20;99.90;;;;;;6213413;23;20012;-80
2023/08/26 08:17:25;;;;;;;35.05;31.52;;;18.30;99.90;;;;;;6213952;23;20016;-81
2023/08/26 08:19:51;;;;;;;36.55;33.00;;;18.50;99.90;;;;;;6239144;23;20012;-80
2023/08/26 08:22:17;;;;;;;33.05;29.73;;;18.90;99.90;;;;;;6238935;23;20331;-80
2023/08/26 08:24:43;;;;;;;30.58;27.63;;;19.60;99.90;;;;;;6213479;23;20061;-80
2023/08/26 08:27:09;;;;;;;29.40;26.48;;;20.20;99.90;;;;;;6238926;23;20095;-80
2023/08/26 08:29:34;;;;;;;31.63;28.55;;;20.60;99.90;;;;;;6239969;23;20047;-81
2023/08/26 08:32:01;;;;;;;34.17;30.65;;;20.60;99.90;;;;;;6214005;23;20009;-80
2023/08/26 08:34:27;;;;;;;28.75;25.63;;;20.60;99.90;;;;;;6238821;23;20015;-80
2023/08/26 08:36:52;;;;;;;30.90;27.55;;;20.40;99.90;;;;;;6238692;23;20016;-80
2023/08/26 08:39:18;;;;;;;28.95;26.63;;;20.50;99.90;;;;;;6239137;23;20335;-80
2023/08/26 08:41:49;;;;;;;35.30;32.05;;;20.40;99.90;;;;;;6213295;23;20467;-80
2023/08/26 08:44:16;;;;;;;27.17;24.77;;;20.40;99.90;;;;;;6212652;23;20051;-80
2023/08/26 08:46:44;;;;;;;27.33;24.65;;;20.40;99.90;;;;;;6238653;23;20351;-80
2023/08/26 08:49:11;;;;;;;28.20;25.70;;;20.50;99.90;;;;;;6238693;23;20462;-80
2023/08/26 08:51:37;;;;;;;32.42;29.52;;;20.50;99.90;;;;;;6238709;23;20012;-80
2023/08/26 08:54:04;;;;;;;31.40;28.98;;;20.40;99.90;;;;;;6213534;23;20031;-80
2023/08/26 08:56:32;;;;;;;32.22;29.48;;;20.10;99.90;;;;;;6238768;23;20016;-80
2023/08/26 08:59:00;;;;;;;34.17;31.50;;;20.20;99.90;;;;;;6238370;23;20019;-80
2023/08/26 09:01:26;;;;;;;30.73;28.13;;;20.40;99.90;;;;;;6240749;22;20012;-80
2023/08/26 09:03:51;;;;;;;37.00;34.35;;;20.70;99.90;;;;;;6238620;23;20019;-80
2023/08/26 09:06:18;;;;;;;35.25;32.38;;;20.80;99.90;;;;;;6213680;23;20024;-81
2023/08/26 09:08:44;;;;;;;32.60;29.90;;;21.00;99.90;;;;;;6238872;23;20423;-80
2023/08/26 09:11:12;;;;;;;37.22;34.58;;;21.20;99.90;;;;;;6240067;23;20015;-80
2023/08/26 09:13:37;;;;;;;34.45;31.25;;;21.80;99.90;;;;;;6215242;23;20008;-80
2023/08/26 09:16:04;;;;;;;35.35;32.70;;;22.50;99.90;;;;;;6240803;23;20378;-80
2023/08/26 09:18:30;;;;;;;30.73;28.13;;;23.00;99.90;;;;;;6241295;23;20016;-80
2023/08/26 09:20:56;;;;;;;33.13;30.27;;;23.20;99.90;;;;;;6242740;22;20008;-80
2023/08/26 09:23:22;;;;;;;33.25;30.88;;;23.30;99.90;;;;;;6215312;23;20008;-81
2023/08/26 09:25:53;;;;;;;38.40;35.03;;;22.80;99.90;;;;;;6215519;23;20008;-80
2023/08/26 09:28:20;;;;;;;39.90;36.42;;;22.40;99.90;;;;;;6240070;23;20385;-81
2023/08/26 09:31:05;;;;;;;40.40;37.42;;;22.20;99.90;;;;;;6215554;23;20450;-80
2023/08/26 09:33:31;;;;;;;32.95;30.55;;;22.70;99.90;;;;;;6242530;22;20009;-80
2023/08/26 09:35:58;;;;;;;30.73;28.42;;;23.30;99.90;;;;;;6242512;22;20074;-80
2023/08/26 09:38:24;;;;;;;45.25;42.28;;;23.10;99.90;;;;;;6242530;22;20016;-80
2023/08/26 09:40:56;;;;;;;35.78;32.97;;;22.80;99.90;;;;;;6240310;23;20052;-80
2023/08/26 09:43:22;;;;;;;41.38;38.03;;;22.40;99.90;;;;;;6215353;23;20065;-81
2023/08/26 09:45:48;;;;;;;37.22;34.63;;;22.20;99.90;;;;;;6215128;23;20012;-80
2023/08/26 09:48:24;;;;;;;30.75;28.38;;;22.00;99.90;;;;;;6240463;23;20330;-80
2023/08/26 09:50:50;;;;;;;45.58;42.42;;;22.00;99.90;;;;;;6215579;23;20369;-81
2023/08/26 09:53:31;;;;;;;32.10;29.73;;;21.80;99.90;;;;;;6242370;22;20048;-81
2023/08/26 09:55:58;;;;;;;43.50;40.33;;;21.80;99.90;;;;;;6214675;23;20087;-80
2023/08/26 09:58:27;;;;;;;49.05;45.70;;;21.80;99.90;;;;;;6240677;23;20019;-80
2023/08/26 10:00:54;;;;;;;40.53;37.63;;;21.80;99.90;;;;;;6240541;23;20482;-80
2023/08/26 10:03:23;;;;;;;27.58;25.55;;;21.80;99.90;;;;;;6215127;23;20008;-80
2023/08/26 10:05:53;;;;;;;36.15;33.47;;;21.50;99.90;;;;;;6214818;23;20039;-80
2023/08/26 10:08:25;;;;;;;34.05;31.33;;;21.30;99.90;;;;;;6239770;23;20335;-80
2023/08/26 10:10:53;;;;;;;36.30;33.72;;;21.20;99.90;;;;;;6239622;23;20019;-80
2023/08/26 10:13:25;;;;;;;47.17;43.65;;;21.00;99.90;;;;;;6240340;23;20321;-80
2023/08/26 10:15:52;;;;;;;46.38;42.90;;;20.90;99.90;;;;;;6242366;22;20066;-80
2023/08/26 10:18:50;;;;;;;31.90;29.45;;;20.80;99.90;;;;;;6239804;23;20020;-80
2023/08/26 10:21:16;;;;;;;32.97;30.38;;;20.70;99.90;;;;;;6226685;23;20016;-80
2023/08/26 10:23:42;;;;;;;30.33;27.63;;;20.60;99.90;;;;;;6214515;23;20016;-81
2023/08/26 10:26:08;;;;;;;31.73;29.15;;;20.50;99.90;;;;;;6241497;22;20008;-80
2023/08/26 10:28:35;;;;;;;40.35;36.92;;;20.60;99.90;;;;;;6240346;23;20061;-80
2023/08/26 10:31:06;;;;;;;35.67;32.97;;;20.80;99.90;;;;;;6242068;22;20004;-80
2023/08/26 10:34:07;;;;;;;44.67;41.47;;;21.10;99.90;;;;;;6241985;22;20012;-80
2023/08/26 10:36:38;;;;;;;35.13;32.15;;;21.40;99.90;;;;;;6232960;23;20047;-81
2023/08/26 10:39:10;;;;;;;27.73;25.35;;;21.50;99.90;;;;;;6214136;23;20039;-80
2023/08/26 10:41:36;;;;;;;41.78;38.25;;;21.30;99.90;;;;;;6241768;22;20016;-80
2023/08/26 10:44:03;;;;;;;87.28;80.63;;;21.00;99.90;;;;;;6239793;23;20015;-81
2023/08/26 10:46:53;;;;;;;38.00;35.45;;;20.30;99.90;;;;;;6240491;23;20016;-80
2023/08/26 10:49:22;;;;;;;35.20;31.90;;;19.90;99.90;;;;;;6239928;23;20103;-79
2023/08/26 10:51:48;;;;;;;33.28;30.95;;;19.20;99.90;;;;;;6239860;23;20091;-79
2023/08/26 10:54:13;;;;;;;27.83;25.92;;;18.60;99.90;;;;;;6241390;23;20039;-79
2023/08/26 10:56:41;;;;;;;31.10;29.08;;;18.30;99.90;;;;;;6239613;23;20047;-80
2023/08/26 10:59:07;;;;;;;26.95;25.35;;;18.20;99.90;;;;;;6240329;23;20019;-81
2023/08/26 11:01:35;;;;;;;23.73;22.17;;;18.30;99.90;;;;;;6239816;23;20063;-80
2023/08/26 11:04:01;;;;;;;24.27;22.60;;;18.30;99.90;;;;;;6240298;23;20083;-81
2023/08/26 11:06:28;;;;;;;22.50;20.67;;;18.30;99.90;;;;;;6214104;23;20047;-79
2023/08/26 11:08:56;;;;;;;20.88;19.52;;;18.30;99.90;;;;;;6213796;23;20008;-80
2023/08/26 11:11:23;;;;;;;25.98;24.02;;;18.30;99.90;;;;;;6239847;23;20050;-80
2023/08/26 11:13:48;;;;;;;20.95;19.20;;;18.30;99.90;;;;;;6214169;23;20012;-79
2023/08/26 11:16:15;;;;;;;22.00;20.42;;;18.20;99.90;;;;;;6241859;23;20459;-79
2023/08/26 11:18:42;;;;;;;21.58;19.80;;;18.40;99.90;;;;;;6239692;23;20012;-80
2023/08/26 11:21:08;;;;;;;19.77;18.40;;;18.50;99.90;;;;;;6239629;23;20455;-79
2023/08/26 11:23:34;;;;;;;22.30;20.80;;;18.90;99.90;;;;;;6240703;22;20028;-79
2023/08/26 11:26:00;;;;;;;17.13;15.80;;;19.20;99.90;;;;;;6214499;23;20012;-79
2023/08/26 11:28:31;;;;;;;21.08;19.58;;;19.40;99.90;;;;;;6241390;22;20035;-80
2023/08/26 11:30:57;;;;;;;19.88;18.38;;;19.60;99.90;;;;;;6241782;23;20004;-80
2023/08/26 11:33:26;;;;;;;20.80;18.70;;;19.80;99.90;;;;;;6241157;23;20080;-80
2023/08/26 11:35:52;;;;;;;18.08;16.80;;;19.90;99.90;;;;;;6239940;23;20012;-80
2023/08/26 11:38:18;;;;;;;21.13;19.67;;;20.00;99.90;;;;;;6238992;23;20043;-80
2023/08/26 11:40:45;;;;;;;24.58;22.88;;;20.00;99.90;;;;;;6214305;23;20478;-80
2023/08/26 11:43:16;;;;;;;20.20;18.90;;;19.90;99.90;;;;;;6214170;23;20016;-80
2023/08/26 11:45:45;;;;;;;21.92;20.13;;;19.80;99.90;;;;;;6214441;23;20008;-81
2023/08/26 11:48:12;;;;;;;24.10;22.25;;;19.70;99.90;;;;;;6214130;23;20016;-80
2023/08/26 11:50:38;;;;;;;23.23;21.52;;;19.70;99.90;;;;;;6239198;23;20012;-79
2023/08/26 11:53:04;;;;;;;32.45;30.15;;;19.80;99.90;;;;;;6213349;23;20499;-80
2023/08/26 11:55:34;;;;;;;18.35;17.15;;;19.80;99.90;;;;;;6239268;23;20384;-80
2023/08/26 11:58:01;;;;;;;27.83;25.90;;;20.00;99.90;;;;;;6214267;23;20062;-80
2023/08/26 12:00:28;;;;;;;25.63;23.90;;;19.90;99.90;;;;;;6239403;23;20166;-81
2023/08/26 12:02:59;;;;;;;21.15;19.45;;;19.90;99.90;;;;;;6241330;22;20012;-81
2023/08/26 12:05:25;;;;;;;24.27;22.50;;;19.80;99.90;;;;;;6239189;23;20031;-82
2023/08/26 12:07:56;;;;;;;25.92;24.17;;;19.90;99.90;;;;;;6213377;23;20011;-81
2023/08/26 12:10:23;;;;;;;26.48;24.25;;;19.70;99.90;;;;;;6241092;22;20012;-81
2023/08/26 12:12:48;;;;;;;29.23;27.13;;;19.80;99.90;;;;;;6213439;23;20009;-80
2023/08/26 12:15:16;;;;;;;25.33;23.33;;;19.70;99.90;;;;;;6239165;23;20119;-81
2023/08/26 12:17:49;;;;;;;24.50;22.67;;;19.90;99.90;;;;;;6214013;23;20012;-81
2023/08/26 12:20:24;;;;;;;;;;;20.00;99.90;;;;;;6214264;23;20012;-81
2023/08/26 12:22:52;;;;;;;23.17;21.58;;;20.00;99.90;;;;;;6239242;23;20010;-81
2023/08/26 12:25:25;;;;;;;22.55;20.90;;;19.90;99.90;;;;;;6239042;23;20061;-81
2023/08/26 12:27:52;;;;;;;26.75;24.88;;;20.00;99.90;;;;;;6239497;23;20043;-81